Latest Weather Observations for Hartz Mountains

IDT60801

Issued at 12:32 pm EDT Monday 20 February 2017 (issued every 30 minutes, with the page automatically refreshed every 10 minutes)

About weather observations | Map of weather stations | Latest weather observations for TAS | Other Formats
Station Details ID: 094191 Name: HARTZ MOUNTAIN (KEOGHS PIMPLE) Lat: -43.20 Lon: 146.77 Height: 831.0 m
Data from the previous 72 hours. | See also: Recent months at Hartz Mountains
Date/Time
EDT
Temp
°C
App
Temp
°C
Dew
Point
°C
Rel
Hum
%
Delta-T
°C
Wind Press
QNH
hPa
Press
MSL
hPa
Rain since
9am
mm
Dir  Spd
km/h
Gust
km/h
Spd
kts
Gust
kts
20/12:30pm 10.4 6.9 7.1 80 1.6 SSW 15 24 8 13 - - 0.0
20/12:00pm 9.4 5.2 5.6 77 1.8 SSW 17 26 9 14 - - 0.0
20/11:30am 10.0 7.2 6.9 81 1.5 SSE 11 17 6 9 - - 0.0
20/11:00am 9.8 6.6 6.7 81 1.5 E 13 22 7 12 - - 0.0
20/10:30am 9.3 6.0 6.2 81 1.5 ESE 13 20 7 11 - - 0.0
20/10:00am 9.3 6.2 5.7 78 1.7 SSE 11 19 6 10 - - 0.0
20/09:30am 9.7 5.8 5.3 74 2.1 ESE 15 26 8 14 - - 0.0
20/09:00am 10.0 6.8 6.7 80 1.6 ESE 13 20 7 11 - - 1.2
20/08:30am 8.7 5.9 5.1 78 1.7 SE 9 15 5 8 - - 1.2
20/08:00am 7.6 4.7 4.4 80 1.5 SE 9 17 5 9 - - 1.2
20/07:30am 6.1 2.3 3.8 85 1.0 SSE 13 15 7 8 - - 1.2
20/07:00am 4.8 0.5 3.3 90 0.7 S 15 17 8 9 - - 1.2
20/06:30am 4.4 -0.3 2.9 90 0.6 SSE 17 19 9 10 - - 1.2
20/06:00am 4.5 0.4 2.4 86 0.9 SSE 13 15 7 8 - - 1.2
20/05:30am 4.6 1.2 2.0 83 1.1 ESE 9 11 5 6 - - 1.2
20/05:00am 5.1 1.3 1.8 79 1.4 S 11 15 6 8 - - 1.2
20/04:30am 4.8 1.6 3.0 88 0.8 WSW 9 11 5 6 - - 1.2
20/04:00am 4.5 3.1 3.3 92 0.5 CALM 0 0 0 0 - - 1.0
20/03:30am 4.7 3.3 3.5 92 0.5 CALM 0 0 0 0 - - 1.0
20/03:00am 4.8 2.5 2.8 87 0.9 SSW 4 9 2 5 - - 1.0
20/02:30am 5.1 1.9 3.1 87 0.9 S 9 15 5 8 - - 1.0
20/02:00am 5.1 1.1 3.1 87 0.9 SSW 13 17 7 9 - - 1.0
20/01:30am 5.3 2.2 3.6 89 0.7 SSW 9 13 5 7 - - 1.0
20/01:00am 5.1 3.3 3.6 90 0.7 N 2 11 1 6 - - 1.0
20/12:30am 5.7 2.6 3.7 87 0.9 SW 9 11 5 6 - - 1.0
20/12:00am 5.4 2.7 3.7 89 0.8 SSW 7 9 4 5 - - 1.0
 
Date/Time
EDT
Temp
°C
App
Temp
°C
Dew
Point
°C
Rel
Hum
%
Delta-T
°C
Wind Press
QNH
hPa
Press
MSL
hPa
Rain since
9am
mm
Dir  Spd
km/h
Gust
km/h
Spd
kts
Gust
kts
19/11:30pm 5.0 1.6 4.0 93 0.4 WSW 11 13 6 7 - - 1.0
19/11:00pm 5.2 2.5 3.5 89 0.7 W 7 13 4 7 - - 1.0
19/10:30pm 5.8 4.5 4.0 88 0.8 CALM 0 0 0 0 - - 1.0
19/10:00pm 5.7 3.0 3.9 88 0.8 WSW 7 9 4 5 - - 1.0
19/09:30pm 6.0 2.9 3.8 86 1.0 NNE 9 13 5 7 - - 1.0
19/09:00pm 5.6 2.5 3.6 87 0.9 S 9 11 5 6 - - 1.0
19/08:30pm 5.3 1.1 4.0 91 0.6 SSE 15 17 8 9 - - 1.0
19/08:00pm 5.7 1.2 4.3 91 0.6 SE 17 20 9 11 - - 1.0
19/07:30pm 6.2 2.1 4.5 89 0.8 SE 15 19 8 10 - - 1.0
19/07:00pm 6.7 2.7 4.9 88 0.8 SE 15 24 8 13 - - 1.0
19/06:30pm 6.7 2.6 4.5 86 1.0 SE 15 20 8 11 - - 1.0
19/06:00pm 8.7 4.4 5.4 80 1.6 SE 17 24 9 13 - - 1.0
19/05:30pm 8.6 5.1 5.5 81 1.5 SE 13 22 7 12 - - 1.0
19/05:00pm 8.2 5.0 5.0 80 1.5 ESE 11 15 6 8 - - 1.0
19/04:30pm 8.3 4.7 4.9 79 1.6 ESE 13 19 7 10 - - 1.0
19/04:00pm 9.7 6.5 6.8 82 1.4 ESE 13 20 7 11 - - 1.0
19/03:30pm 8.8 6.5 5.5 80 1.6 E 7 13 4 7 - - 1.0
19/03:00pm 7.7 4.2 5.5 86 1.0 E 13 19 7 10 - - 1.0
19/02:30pm 7.9 4.0 5.4 84 1.2 E 15 24 8 13 - - 1.0
19/02:00pm 8.1 5.1 6.2 88 0.9 ESE 11 17 6 9 - - 1.0
19/01:30pm 7.7 4.0 6.5 92 0.6 ESE 15 20 8 11 - - 0.8
19/01:00pm 7.5 3.5 4.8 83 1.2 ESE 15 20 8 11 - - 0.0
19/12:30pm 7.7 4.8 6.3 91 0.7 SE 11 15 6 8 - - 0.0
19/12:00pm 7.3 5.0 5.6 89 0.8 E 7 13 4 7 - - 0.0
19/11:30am 6.7 4.4 4.7 87 0.9 NNW 6 7 3 4 - - 0.0
19/11:00am 7.0 4.6 5.2 88 0.8 NNE 7 9 4 5 - - 0.0
19/10:30am 6.8 4.5 4.6 86 1.0 W 6 9 3 5 - - 0.0
19/10:00am 6.0 3.8 3.3 83 1.2 WSW 4 11 2 6 - - 0.0
19/09:30am 6.4 2.9 3.4 81 1.3 W 11 17 6 9 - - 0.0
19/09:00am 6.3 2.9 3.8 84 1.1 WNW 11 20 6 11 - - 1.0
19/08:30am 5.3 1.4 3.6 89 0.7 NW 13 20 7 11 - - 1.0
19/08:00am 4.1 0.2 3.2 94 0.4 NW 13 20 7 11 - - 1.0
19/07:30am 3.7 -0.3 3.0 95 0.3 WNW 13 17 7 9 - - 1.0
19/07:00am 3.4 -1.4 2.7 95 0.3 NW 17 20 9 11 - - 1.0
19/06:30am 3.3 -1.5 2.4 94 0.4 NW 17 24 9 13 - - 1.0
19/06:00am 3.5 -1.6 2.8 95 0.3 NW 19 24 10 13 - - 1.0
19/05:30am 3.4 -1.7 2.8 96 0.3 NW 19 22 10 12 - - 1.0
19/05:00am 3.3 -2.4 2.7 96 0.3 NW 22 28 12 15 - - 1.0
19/04:30am 3.3 -2.8 2.7 96 0.3 NNW 24 32 13 17 - - 1.0
19/04:00am 3.2 -1.6 2.5 95 0.3 NW 17 22 9 12 - - 1.0
19/03:30am 3.7 -1.1 2.7 93 0.4 NNW 17 24 9 13 - - 0.8
19/03:00am 4.0 -1.4 2.2 88 0.8 NNW 20 28 11 15 - - 0.6
19/02:30am 3.9 -0.6 2.4 90 0.6 NNW 15 24 8 13 - - 0.6
19/02:00am 3.8 -1.4 2.5 91 0.5 NNW 19 28 10 15 - - 0.6
19/01:30am 3.8 -1.6 2.3 90 0.6 NNW 20 30 11 16 - - 0.6
19/01:00am 3.7 -0.8 2.4 91 0.5 NNW 15 20 8 11 - - 0.6
19/12:30am 4.0 -0.1 2.5 90 0.6 NNW 13 19 7 10 - - 0.6
19/12:00am 3.6 -0.4 2.7 94 0.4 NNW 13 15 7 8 - - 0.6
 
Date/Time
EDT
Temp
°C
App
Temp
°C
Dew
Point
°C
Rel
Hum
%
Delta-T
°C
Wind Press
QNH
hPa
Press
MSL
hPa
Rain since
9am
mm
Dir  Spd
km/h
Gust
km/h
Spd
kts
Gust
kts
18/11:30pm 3.6 -0.1 2.6 93 0.4 NNW 11 17 6 9 - - 0.6
18/11:00pm 3.9 -0.1 2.9 93 0.4 NW 13 19 7 10 - - 0.6
18/10:30pm 4.0 -1.3 3.0 93 0.4 NW 20 32 11 17 - - 0.6
18/10:00pm 4.0 -0.8 2.8 92 0.5 NW 17 26 9 14 - - 0.6
18/09:30pm 4.1 -2.0 2.9 92 0.5 WNW 24 35 13 19 - - 0.6
18/09:00pm 4.1 -1.2 2.8 91 0.6 WNW 20 30 11 16 - - 0.6
18/08:30pm 4.2 -1.9 2.7 90 0.6 WNW 24 39 13 21 - - 0.6
18/08:00pm 4.7 -1.8 2.9 88 0.8 WNW 26 43 14 23 - - 0.6
18/07:30pm 5.9 -0.9 2.9 81 1.3 NW 28 41 15 22 - - 0.6
18/07:00pm 5.4 -1.0 3.3 86 0.9 NW 26 37 14 20 - - 0.6
18/06:30pm 5.2 -1.5 3.5 89 0.7 NW 28 43 15 23 - - 0.6
18/06:00pm 5.1 -1.6 3.9 92 0.5 WNW 28 39 15 21 - - 0.6
18/05:44pm 5.3 -2.2 3.6 89 0.7 WNW 32 52 17 28 - - 0.4
18/05:30pm 5.6 -0.6 4.1 90 0.7 WNW 26 35 14 19 - - 0.4
18/05:01pm 5.5 -1.3 3.2 85 1.0 W 28 57 15 31 - - 0.4
18/05:00pm 5.5 -0.9 3.0 84 1.1 W 26 57 14 31 - - 0.4
18/04:45pm 7.7 1.5 6.2 90 0.7 W 28 48 15 26 - - 0.4
18/04:30pm 6.3 0.1 4.5 88 0.8 WNW 26 39 14 21 - - 0.4
18/04:00pm 8.7 2.3 5.4 80 1.6 NW 28 43 15 23 - - 0.4
18/03:30pm 7.9 2.1 6.4 90 0.7 WNW 26 35 14 19 - - 0.4
18/03:13pm 6.7 0.0 3.7 81 1.3 WNW 28 48 15 26 - - 0.2
18/03:00pm 9.0 2.6 5.2 77 1.8 W 28 41 15 22 - - 0.2
18/02:30pm 5.9 -2.1 3.6 85 1.0 WNW 35 54 19 29 - - 0.2
18/02:23pm 9.2 2.8 5.4 77 1.8 WNW 28 48 15 26 - - 0.2
18/02:00pm 9.3 3.9 6.4 82 1.4 NW 24 39 13 21 - - 0.2
18/01:30pm 7.8 1.4 5.3 84 1.2 WNW 28 43 15 23 - - 0.2
18/01:08pm 6.4 -1.8 4.7 89 0.8 W 37 56 20 30 - - 0.2
18/01:00pm 6.9 -0.5 4.9 87 0.9 WNW 33 50 18 27 - - 0.2
18/12:33pm 7.2 0.6 4.0 80 1.4 WNW 28 52 15 28 - - 0.2
18/12:30pm 8.4 3.0 6.2 86 1.1 WNW 24 39 13 21 - - 0.2
18/12:00pm 7.0 -0.7 5.2 88 0.8 WNW 35 48 19 26 - - 0.2
18/11:30am 7.5 0.2 5.5 87 0.9 WNW 33 46 18 25 - - 0.2
18/11:00am 7.0 -0.6 5.6 91 0.7 WNW 35 56 19 30 - - 0.2
18/10:48am 6.4 -0.8 5.0 91 0.6 WNW 32 50 17 27 - - 0.2
18/10:30am 4.9 -2.5 3.9 93 0.4 WNW 32 46 17 25 - - 0.2
18/10:00am 5.8 -0.1 4.0 88 0.8 WNW 24 35 13 19 - - 0.0
18/09:30am 5.4 0.0 4.5 94 0.4 WNW 22 35 12 19 - - 0.0
18/09:00am 4.2 -1.8 3.5 95 0.3 W 24 32 13 17 - - 4.4
18/08:30am 4.3 -1.3 3.4 94 0.4 WNW 22 39 12 21 - - 4.2
18/08:00am 4.0 -3.7 2.5 90 0.6 WNW 32 50 17 27 - - 4.0
18/07:30am 3.4 -4.5 2.2 92 0.5 WNW 33 46 18 25 - - 4.0
18/07:00am 3.2 -6.2 2.3 94 0.4 W 41 56 22 30 - - 4.0
18/06:38am 2.9 -6.9 2.2 95 0.3 W 43 63 23 34 - - 4.0
18/06:30am 2.8 -6.6 2.1 95 0.3 W 41 56 22 30 - - 4.0
18/06:00am 2.9 -7.4 2.5 97 0.2 W 46 61 25 33 - - 4.0
18/05:36am 3.1 -6.6 2.8 98 0.1 WNW 43 61 23 33 - - 4.0
18/05:30am 3.1 -6.2 2.8 98 0.1 WNW 41 57 22 31 - - 4.0
18/05:27am 3.1 -5.8 2.8 98 0.1 WNW 39 57 21 31 - - 4.0
18/05:00am 2.7 -6.0 2.3 97 0.2 WNW 37 50 20 27 - - 4.0
18/04:35am 3.3 -3.9 2.9 97 0.2 W 30 50 16 27 - - 3.6
18/04:30am 3.3 -4.5 2.9 97 0.2 W 33 46 18 25 - - 3.6
18/04:00am 3.1 -3.4 2.7 97 0.2 WNW 26 39 14 21 - - 3.6
18/03:30am 3.3 -3.5 2.9 97 0.2 WNW 28 43 15 23 - - 3.4
18/03:00am 3.4 -3.4 3.0 97 0.2 WNW 28 41 15 22 - - 3.0
18/02:30am 3.3 -3.2 2.9 97 0.2 WNW 26 35 14 19 - - 3.0
18/02:00am 3.8 -2.6 3.4 97 0.2 WNW 26 41 14 22 - - 3.0
18/01:38am 4.0 -2.7 3.4 96 0.3 W 28 48 15 26 - - 2.4
18/01:30am 4.4 -0.6 3.8 96 0.3 WNW 19 24 10 13 - - 2.0
18/01:00am 4.3 -1.3 3.7 96 0.3 NW 22 33 12 18 - - 1.8
18/12:30am 4.5 -0.6 3.9 96 0.3 WNW 20 32 11 17 - - 1.8
18/12:00am 4.6 0.5 4.2 97 0.2 WNW 15 22 8 12 - - 1.8
 
Date/Time
EDT
Temp
°C
App
Temp
°C
Dew
Point
°C
Rel
Hum
%
Delta-T
°C
Wind Press
QNH
hPa
Press
MSL
hPa
Rain since
9am
mm
Dir  Spd
km/h
Gust
km/h
Spd
kts
Gust
kts
17/11:30pm 4.8 0.3 4.4 97 0.2 WNW 17 26 9 14 - - 1.8
17/11:07pm 5.0 -1.5 4.6 97 0.2 WNW 28 46 15 25 - - 1.8
17/11:00pm 5.0 -1.9 4.4 96 0.3 WNW 30 46 16 25 - - 1.8
17/10:30pm 5.3 0.5 4.7 96 0.3 NW 19 30 10 16 - - 1.6
17/10:00pm 5.4 0.0 4.7 95 0.3 NW 22 33 12 18 - - 1.6
17/09:30pm 5.7 0.8 5.0 95 0.3 NW 20 35 11 19 - - 1.4
17/09:00pm 5.9 2.0 5.2 95 0.3 NW 15 20 8 11 - - 1.4
17/08:30pm 6.0 2.5 5.3 95 0.3 WNW 13 19 7 10 - - 1.4
17/08:00pm 6.1 1.2 5.2 94 0.4 NW 20 30 11 16 - - 1.4
17/07:30pm 6.2 1.5 5.2 93 0.5 NW 19 32 10 17 - - 1.4
17/07:00pm 6.5 1.6 5.3 92 0.6 NW 20 30 11 16 - - 1.4
17/06:31pm 6.9 0.6 5.8 93 0.5 WNW 28 46 15 25 - - 1.4
17/06:30pm 6.8 0.1 5.7 93 0.5 WNW 30 46 16 25 - - 1.4
17/06:00pm 6.4 -1.3 5.4 93 0.5 WNW 35 61 19 33 - - 1.4
17/05:30pm 6.8 -0.8 5.9 94 0.4 W 35 57 19 31 - - 1.4
17/05:06pm 7.1 1.0 6.5 96 0.3 WNW 28 57 15 31 - - 1.4
17/05:00pm 7.1 0.0 6.5 96 0.3 WNW 33 48 18 26 - - 1.4
17/04:30pm 7.6 1.2 6.9 95 0.3 W 30 59 16 32 - - 1.4
17/04:29pm 7.8 1.8 7.2 96 0.3 W 28 59 15 32 - - 1.4
17/04:00pm 8.5 4.2 7.9 96 0.3 WNW 20 37 11 20 - - 1.4
17/03:30pm 9.0 4.5 8.4 96 0.3 WSW 22 43 12 23 - - 1.4
17/03:20pm 8.8 2.0 7.6 92 0.6 W 33 50 18 27 - - 1.2
17/03:15pm 9.6 3.6 8.5 93 0.6 WNW 30 50 16 27 - - 0.2
17/03:00pm 10.1 5.7 8.9 92 0.6 WNW 22 37 12 20 - - 0.0
17/02:51pm 10.0 4.3 8.4 90 0.8 NW 28 48 15 26 - - 0.0
17/02:30pm 9.9 5.0 8.3 90 0.8 NNW 24 43 13 23 - - 0.0
17/02:00pm 10.2 3.9 7.6 84 1.3 NW 30 48 16 26 - - 0.0
17/01:47pm 10.0 4.1 7.6 85 1.2 NW 28 50 15 27 - - 0.0
17/01:30pm 10.0 5.2 7.4 84 1.3 NW 22 39 12 21 - - 0.0
17/01:00pm 10.1 3.5 7.7 85 1.2 NW 32 61 17 33 - - 0.0
17/12:33pm 9.4 3.4 7.2 86 1.1 WNW 28 46 15 25 - - 0.0

Other Formats:

Comma delimited format used in spreadsheet applications
http://www.bom.gov.au/fwo/IDT60801/IDT60801.94977.axf

JavaScript Object Notation format (JSON) in row-major order
http://www.bom.gov.au/fwo/IDT60801/IDT60801.94977.json